createdAt,value
2022-11-01T00:02:12.284Z,19.20
2022-11-01T00:04:40.657Z,17.58
2022-11-01T00:07:08.914Z,18.77
2022-11-01T00:09:37.151Z,16.85
2022-11-01T00:12:07.220Z,16.35
2022-11-01T00:14:35.443Z,15.95
2022-11-01T00:17:04.217Z,14.82
2022-11-01T00:19:32.475Z,16.23
2022-11-01T00:22:00.743Z,15.38
2022-11-01T00:24:30.995Z,15.27
2022-11-01T00:26:59.710Z,16.02
2022-11-01T00:29:29.277Z,15.82
2022-11-01T00:31:57.843Z,15.63
2022-11-01T00:34:26.202Z,14.52
2022-11-01T00:36:54.671Z,14.32
2022-11-01T00:39:26.141Z,15.98
2022-11-01T00:41:57.019Z,14.13
2022-11-01T00:44:25.234Z,14.27
2022-11-01T00:46:54.791Z,13.68
2022-11-01T00:49:23.013Z,12.63
2022-11-01T00:51:52.138Z,15.07
2022-11-01T00:54:20.359Z,13.05
2022-11-01T00:56:48.670Z,14.35
2022-11-01T00:59:16.875Z,13.68
2022-11-01T01:01:45.581Z,12.32
2022-11-01T01:04:15.302Z,11.95
2022-11-01T01:06:43.810Z,13.40
2022-11-01T01:09:12.637Z,12.88
2022-11-01T01:11:40.947Z,14.02
2022-11-01T01:14:10.206Z,12.02
2022-11-01T01:16:39.114Z,12.75
2022-11-01T01:19:07.736Z,12.85
2022-11-01T01:21:37.341Z,13.20
2022-11-01T01:24:05.770Z,11.93
2022-11-01T01:26:34.289Z,12.63
2022-11-01T01:29:02.914Z,13.13
2022-11-01T01:31:31.417Z,12.40
2022-11-01T01:33:59.894Z,12.32
2022-11-01T01:36:28.219Z,13.55
2022-11-01T01:38:57.781Z,12.70
2022-11-01T01:41:43.974Z,12.52
2022-11-01T01:45:11.821Z,12.68
2022-11-01T01:47:43.222Z,11.55
2022-11-01T01:50:18.967Z,11.88
2022-11-01T01:52:53.567Z,12.00
2022-11-01T01:55:28.127Z,13.40
2022-11-01T01:57:58.519Z,11.13
2022-11-01T02:00:28.037Z,12.07
2022-11-01T02:02:56.502Z,11.90
2022-11-01T02:05:34.540Z,11.82
2022-11-01T02:08:04.087Z,12.15
2022-11-01T02:10:35.101Z,13.23
2022-11-01T02:13:03.363Z,11.30
2022-11-01T02:15:41.401Z,11.70
2022-11-01T02:18:21.696Z,11.68
2022-11-01T02:21:26.806Z,11.70
2022-11-01T02:24:32.695Z,9.57
2022-11-01T02:30:25.821Z,10.88
2022-11-01T02:33:14.536Z,10.40
2022-11-01T02:35:56.843Z,10.82
2022-11-01T02:38:30.747Z,11.30
2022-11-01T02:41:06.356Z,10.17
2022-11-01T02:43:44.571Z,11.30
2022-11-01T02:46:30.171Z,10.05
2022-11-01T02:49:00.212Z,12.00
2022-11-01T02:51:29.334Z,11.07
2022-11-01T02:54:01.383Z,11.10
2022-11-01T02:56:30.024Z,10.52
2022-11-01T02:58:58.866Z,10.32
2022-11-01T03:01:30.323Z,9.80
2022-11-01T03:04:01.676Z,9.88
2022-11-01T03:06:36.651Z,10.20
2022-11-01T03:09:08.628Z,9.70
2022-11-01T03:11:50.152Z,12.75
2022-11-01T03:14:28.313Z,13.32
2022-11-01T03:17:03.443Z,14.05
2022-11-01T03:19:43.359Z,14.25
2022-11-01T03:22:15.789Z,13.02
2022-11-01T03:24:50.237Z,14.48
2022-11-01T03:27:34.539Z,16.83
2022-11-01T03:30:07.851Z,15.30
2022-11-01T03:32:41.673Z,16.10
2022-11-01T03:35:18.425Z,13.20
2022-11-01T03:37:50.446Z,16.83
2022-11-01T03:40:19.844Z,15.93
2022-11-01T03:42:51.744Z,16.27
2022-11-01T03:45:25.548Z,16.23
2022-11-01T03:47:54.001Z,14.23
2022-11-01T03:50:26.485Z,16.30
2022-11-01T03:52:54.787Z,14.77
2022-11-01T03:55:23.613Z,14.05
2022-11-01T03:57:54.109Z,14.07
2022-11-01T04:00:24.899Z,17.23
2022-11-01T04:02:55.580Z,16.95
2022-11-01T04:05:27.423Z,15.13
2022-11-01T04:07:55.890Z,17.23
2022-11-01T04:10:26.213Z,17.17
2022-11-01T04:12:54.991Z,17.00
2022-11-01T04:15:42.073Z,15.40
2022-11-01T04:18:34.313Z,16.10
2022-11-01T04:21:06.920Z,18.45
2022-11-01T04:23:35.829Z,18.77
2022-11-01T04:26:05.640Z,18.75
2022-11-01T04:28:34.420Z,16.88
2022-11-01T04:31:03.299Z,15.77
2022-11-01T04:33:31.659Z,15.07
2022-11-01T04:35:59.869Z,17.05
2022-11-01T04:38:29.553Z,16.80
2022-11-01T04:40:57.746Z,17.23
2022-11-01T04:43:26.210Z,18.08
2022-11-01T04:45:58.212Z,15.82
2022-11-01T04:48:28.283Z,16.77
2022-11-01T04:50:56.743Z,15.60
2022-11-01T04:53:25.236Z,14.73
2022-11-01T04:55:55.012Z,14.48
2022-11-01T04:58:23.586Z,16.13
2022-11-01T05:00:51.804Z,15.38
2022-11-01T05:03:20.322Z,14.73
2022-11-01T05:05:48.838Z,15.45
2022-11-01T05:08:18.571Z,15.27
2022-11-01T05:10:46.821Z,16.10
2022-11-01T05:13:16.381Z,17.58
2022-11-01T05:15:59.742Z,16.35
2022-11-01T05:18:33.070Z,17.55
2022-11-01T05:21:01.549Z,19.38
2022-11-01T05:23:30.069Z,19.17
2022-11-01T05:25:58.709Z,20.38
2022-11-01T05:28:28.710Z,22.50
2022-11-01T05:30:58.619Z,19.80
2022-11-01T05:33:26.988Z,19.90
2022-11-01T05:35:55.247Z,22.98
2022-11-01T05:38:23.809Z,22.85
2022-11-01T05:40:52.429Z,19.83
2022-11-01T05:43:20.653Z,24.00
2022-11-01T05:45:51.353Z,19.83
2022-11-01T05:48:19.624Z,21.90
2022-11-01T05:50:47.911Z,22.70
2022-11-01T05:53:16.437Z,23.00
2022-11-01T05:55:44.610Z,21.15
2022-11-01T05:58:13.135Z,20.55
2022-11-01T06:00:41.893Z,19.02
2022-11-01T06:03:11.502Z,21.75
2022-11-01T06:05:40.503Z,21.45
2022-11-01T06:08:10.054Z,17.85
2022-11-01T06:10:39.117Z,17.42
2022-11-01T06:13:07.569Z,17.55
2022-11-01T06:15:38.822Z,14.68
2022-11-01T06:18:09.079Z,16.20
2022-11-01T06:20:39.170Z,15.60
2022-11-01T06:23:12.027Z,16.55
2022-11-01T06:25:40.407Z,16.85
2022-11-01T06:28:08.884Z,14.68
2022-11-01T06:30:38.932Z,14.13
2022-11-01T06:33:09.458Z,13.10
2022-11-01T06:35:39.178Z,15.27
2022-11-01T06:38:08.506Z,15.88
2022-11-01T06:40:37.603Z,14.63
2022-11-01T06:43:07.291Z,13.20
2022-11-01T06:45:35.785Z,14.88
2022-11-01T06:48:04.735Z,15.27
2022-11-01T06:50:33.720Z,15.77
2022-11-01T06:53:03.472Z,14.75
2022-11-01T06:55:33.500Z,14.55
2022-11-01T06:58:04.225Z,13.32
2022-11-01T07:00:33.376Z,13.98
2022-11-01T07:03:04.419Z,15.15
2022-11-01T07:05:37.449Z,14.05
2022-11-01T07:08:09.225Z,12.05
2022-11-01T07:10:39.431Z,11.20
2022-11-01T07:13:08.869Z,10.40
2022-11-01T07:15:37.585Z,9.20
2022-11-01T07:18:08.834Z,9.00
2022-11-01T07:20:42.317Z,8.23
2022-11-01T07:23:14.752Z,8.05
2022-11-01T07:25:43.712Z,8.90
2022-11-01T07:28:12.152Z,6.93
2022-11-01T07:30:40.435Z,7.82
2022-11-01T07:33:08.693Z,6.50
2022-11-01T07:35:37.121Z,6.60
2022-11-01T07:38:09.701Z,6.57
2022-11-01T07:40:42.466Z,7.40
2022-11-01T07:43:11.136Z,7.20
2022-11-01T07:45:39.423Z,5.88
2022-11-01T07:48:11.219Z,6.30
2022-11-01T07:50:41.282Z,5.53
2022-11-01T07:53:11.738Z,5.95
2022-11-01T07:55:41.475Z,5.90
2022-11-01T07:58:10.834Z,6.22
2022-11-01T08:00:40.383Z,5.32
2022-11-01T08:03:11.234Z,5.35
2022-11-01T08:05:40.171Z,5.43
2022-11-01T08:08:09.471Z,5.30
2022-11-01T08:10:39.622Z,6.57
2022-11-01T08:13:15.729Z,5.95
2022-11-01T08:15:44.041Z,5.55
2022-11-01T08:18:12.644Z,4.38
2022-11-01T08:20:42.445Z,4.45
2022-11-01T08:23:11.612Z,4.20
2022-11-01T08:25:40.520Z,3.42
2022-11-01T08:28:13.467Z,3.63
2022-11-01T08:30:44.100Z,3.80
2022-11-01T08:33:12.946Z,3.45
2022-11-01T08:35:45.801Z,3.47
2022-11-01T08:38:17.690Z,2.92
2022-11-01T08:40:46.213Z,3.83
2022-11-01T08:43:15.878Z,3.30
2022-11-01T08:45:44.385Z,3.50
2022-11-01T08:48:13.410Z,3.42
2022-11-01T08:50:41.890Z,3.72
2022-11-01T08:53:13.764Z,3.60
2022-11-01T08:55:42.761Z,3.80
2022-11-01T08:58:11.596Z,3.80
2022-11-01T09:00:41.510Z,4.32
2022-11-01T09:03:09.747Z,4.43
2022-11-01T09:05:38.992Z,3.20
2022-11-01T09:08:08.164Z,3.55
2022-11-01T09:10:36.699Z,4.40
2022-11-01T09:13:07.698Z,4.53
2022-11-01T09:15:36.131Z,4.30
2022-11-01T09:18:09.178Z,4.13
2022-11-01T09:20:37.659Z,3.88
2022-11-01T09:23:06.321Z,1.20
2022-11-01T09:25:34.862Z,1.35
2022-11-01T09:28:03.211Z,1.02
2022-11-01T09:30:31.493Z,1.42
2022-11-01T09:33:00.015Z,1.67
2022-11-01T09:35:29.839Z,1.10
2022-11-01T09:38:02.404Z,0.60
2022-11-01T09:40:39.111Z,0.70
2022-11-01T09:43:10.512Z,0.75
2022-11-01T09:45:39.156Z,0.90
2022-11-01T09:48:08.416Z,0.98
2022-11-01T09:50:39.973Z,1.55
2022-11-01T09:53:16.899Z,0.82
2022-11-01T09:55:52.520Z,1.00
2022-11-01T09:58:35.008Z,0.88
2022-11-01T10:01:25.437Z,0.70
2022-11-01T10:04:10.549Z,0.60
2022-11-01T10:06:44.888Z,1.00
2022-11-01T10:09:30.326Z,0.60
2022-11-01T10:12:12.605Z,0.70
2022-11-01T10:14:59.515Z,0.90
2022-11-01T10:17:52.150Z,0.93
2022-11-01T10:20:24.769Z,0.68
2022-11-01T10:22:54.733Z,1.00
2022-11-01T10:25:26.032Z,0.75
2022-11-01T10:28:05.214Z,0.90
2022-11-01T10:30:41.021Z,0.80
2022-11-01T10:33:26.941Z,0.73
2022-11-01T10:35:59.715Z,0.80
2022-11-01T10:39:10.314Z,0.47
2022-11-01T10:41:33.213Z,0.70
2022-11-01T10:44:05.060Z,0.70
2022-11-01T10:46:39.768Z,0.70
2022-11-01T10:49:19.062Z,0.50
2022-11-01T10:51:49.527Z,0.40
2022-11-01T10:54:25.638Z,0.65
2022-11-01T10:57:00.109Z,0.95
2022-11-01T10:59:36.109Z,0.63
2022-11-01T11:02:14.273Z,0.70
2022-11-01T11:04:43.134Z,0.52
2022-11-01T11:07:16.493Z,0.50
2022-11-01T11:09:51.079Z,0.50
2022-11-01T11:12:22.979Z,0.50
2022-11-01T11:14:57.014Z,0.65
2022-11-01T11:17:30.716Z,1.20
2022-11-01T11:20:05.522Z,0.85
2022-11-01T11:25:17.418Z,0.40
2022-11-01T11:27:48.516Z,0.60
2022-11-01T11:30:29.546Z,0.47
2022-11-01T11:32:58.980Z,0.45
2022-11-01T11:35:29.185Z,0.75
2022-11-01T11:37:59.989Z,0.80
2022-11-01T11:40:42.630Z,0.60
2022-11-01T11:43:25.913Z,0.88
2022-11-01T11:46:06.733Z,0.47
2022-11-01T11:48:34.966Z,0.38
2022-11-01T11:51:06.634Z,0.70
2022-11-01T11:53:35.251Z,0.90
2022-11-01T11:56:07.845Z,0.70
2022-11-01T11:58:40.397Z,0.45
2022-11-01T12:01:12.638Z,0.40
2022-11-01T12:03:49.677Z,0.75
2022-11-01T12:06:23.073Z,0.63
2022-11-01T12:08:54.270Z,0.63
2022-11-01T12:11:25.927Z,0.80
2022-11-01T12:14:06.681Z,0.57
2022-11-01T12:16:42.042Z,1.13
2022-11-01T12:19:25.714Z,0.75
2022-11-01T12:21:55.575Z,0.80
2022-11-01T12:24:27.768Z,0.70
2022-11-01T12:27:02.330Z,0.55
2022-11-01T12:29:37.008Z,0.60
2022-11-01T12:34:42.772Z,0.50
2022-11-01T12:37:19.699Z,0.43
2022-11-01T12:39:55.746Z,0.60
2022-11-01T12:42:29.862Z,0.63
2022-11-01T12:45:04.771Z,0.88
2022-11-01T12:47:39.741Z,0.80
2022-11-01T12:50:18.883Z,0.82
2022-11-01T12:52:52.703Z,0.70
2022-11-01T12:55:29.755Z,1.00
2022-11-01T12:58:00.238Z,0.50
2022-11-01T13:00:36.111Z,0.60
2022-11-01T13:03:23.359Z,0.65
2022-11-01T13:06:01.824Z,0.65
2022-11-01T13:08:41.733Z,0.63
2022-11-01T13:11:19.651Z,1.13
2022-11-01T13:13:57.995Z,1.00
2022-11-01T13:16:32.810Z,0.60
2022-11-01T13:19:12.319Z,0.75
2022-11-01T13:21:50.481Z,0.40
2022-11-01T13:24:29.628Z,0.47
2022-11-01T13:27:05.659Z,0.90
2022-11-01T13:29:45.489Z,0.43
2022-11-01T13:32:22.773Z,0.85
2022-11-01T13:35:10.512Z,0.40
2022-11-01T13:37:46.658Z,0.70
2022-11-01T13:40:27.813Z,0.90
2022-11-01T13:43:02.742Z,1.00
2022-11-01T13:46:14.315Z,0.50
2022-11-01T13:49:10.185Z,0.68
2022-11-01T13:51:43.541Z,0.80
2022-11-01T13:54:21.959Z,0.80
2022-11-01T13:56:58.691Z,0.63
2022-11-01T13:59:45.746Z,0.60
2022-11-01T14:02:54.055Z,0.50
2022-11-01T14:05:22.726Z,0.70
2022-11-01T14:08:30.408Z,0.60
2022-11-01T14:10:58.669Z,0.73
2022-11-01T14:13:40.271Z,0.75
2022-11-01T14:16:27.980Z,0.55
2022-11-01T14:19:21.885Z,1.00
2022-11-01T14:21:54.464Z,0.80
2022-11-01T14:24:35.258Z,0.82
2022-11-01T14:27:35.040Z,1.00
2022-11-01T14:30:14.260Z,0.98
2022-11-01T14:32:46.605Z,0.70
2022-11-01T14:35:26.008Z,1.00
2022-11-01T14:37:58.177Z,0.88
2022-11-01T14:40:35.981Z,0.65
2022-11-01T14:43:12.147Z,0.98
2022-11-01T14:45:46.152Z,1.00
2022-11-01T14:48:23.560Z,0.95
2022-11-01T14:51:00.736Z,0.70
2022-11-01T14:53:34.054Z,1.30
2022-11-01T14:56:16.125Z,0.75
2022-11-01T14:58:45.145Z,0.88
2022-11-01T15:01:18.087Z,0.80
2022-11-01T15:03:55.247Z,1.00
2022-11-01T15:06:27.999Z,1.08
2022-11-01T15:08:59.088Z,0.88
2022-11-01T15:11:29.177Z,0.93
2022-11-01T15:13:58.344Z,1.20
2022-11-01T15:16:28.873Z,0.90
2022-11-01T15:19:00.700Z,1.15
2022-11-01T15:21:31.576Z,1.17
2022-11-01T15:24:02.219Z,1.40
2022-11-01T15:26:34.106Z,0.70
2022-11-01T15:29:06.026Z,0.85
2022-11-01T15:31:35.709Z,0.82
2022-11-01T15:34:07.242Z,0.88
2022-11-01T15:36:39.320Z,1.13
2022-11-01T15:39:21.041Z,1.50
2022-11-01T15:41:51.040Z,0.80
2022-11-01T15:44:25.428Z,0.80
2022-11-01T15:46:58.208Z,1.27
2022-11-01T15:49:31.201Z,0.82
2022-11-01T15:52:05.368Z,1.13
2022-11-01T15:54:42.195Z,1.40
2022-11-01T15:57:18.999Z,1.13
2022-11-01T15:59:58.054Z,1.20
2022-11-01T16:02:32.073Z,1.55
2022-11-01T16:05:01.432Z,0.98
2022-11-01T16:07:35.230Z,1.17
2022-11-01T16:10:05.912Z,1.07
2022-11-01T16:12:39.649Z,0.98
2022-11-01T16:15:22.283Z,0.95
2022-11-01T16:17:55.708Z,0.88
2022-11-01T16:20:35.354Z,1.55
2022-11-01T16:23:07.168Z,1.55
2022-11-01T16:25:38.066Z,2.17
2022-11-01T16:28:27.723Z,2.35
2022-11-01T16:30:57.606Z,2.78
2022-11-01T16:33:45.154Z,2.05
2022-11-01T16:36:41.430Z,1.48
2022-11-01T16:39:32.337Z,1.98
2022-11-01T16:42:01.227Z,2.42
2022-11-01T16:44:29.550Z,1.70
2022-11-01T16:46:58.226Z,1.70
2022-11-01T16:49:29.407Z,2.08
2022-11-01T16:51:58.267Z,1.80
2022-11-01T16:54:27.123Z,1.60
2022-11-01T16:56:59.082Z,1.27
2022-11-01T16:59:35.537Z,0.95
2022-11-01T17:02:17.312Z,0.82
2022-11-01T17:04:47.482Z,0.93
2022-11-01T17:07:15.866Z,1.27
2022-11-01T17:09:44.529Z,1.25
2022-11-01T17:12:14.124Z,0.90
2022-11-01T17:14:42.582Z,1.50
2022-11-01T17:17:19.106Z,1.58
2022-11-01T17:19:55.730Z,0.90
2022-11-01T17:22:35.974Z,1.45
2022-11-01T17:25:05.654Z,2.30
2022-11-01T17:27:35.860Z,1.20
2022-11-01T17:30:04.974Z,1.20
2022-11-01T17:32:33.538Z,1.88
2022-11-01T17:35:02.293Z,1.90
2022-11-01T17:37:32.298Z,1.77
2022-11-01T17:40:01.885Z,1.52
2022-11-01T17:42:30.616Z,1.45
2022-11-01T17:45:00.177Z,1.55
2022-11-01T17:47:29.286Z,1.40
2022-11-01T17:49:57.616Z,1.40
2022-11-01T17:52:25.834Z,1.45
2022-11-01T17:54:54.013Z,1.90
2022-11-01T17:57:22.872Z,2.20
2022-11-01T17:59:51.373Z,1.80
2022-11-01T18:02:21.050Z,1.48
2022-11-01T18:04:49.618Z,1.80
2022-11-01T18:07:17.866Z,1.48
2022-11-01T18:09:46.591Z,1.80
2022-11-01T18:12:21.841Z,2.90
2022-11-01T18:14:58.662Z,4.82
2022-11-01T18:17:46.654Z,5.05
2022-11-01T18:20:36.728Z,5.15
2022-11-01T18:23:10.061Z,8.80
2022-11-01T18:25:42.216Z,3.42
2022-11-01T18:28:14.598Z,2.85
2022-11-01T18:30:45.168Z,2.83
2022-11-01T18:33:22.992Z,3.38
2022-11-01T18:36:00.564Z,3.72
2022-11-01T18:38:36.533Z,2.95
2022-11-01T18:41:09.399Z,2.95
2022-11-01T18:43:41.201Z,3.22
2022-11-01T18:46:26.178Z,3.88
2022-11-01T18:49:01.196Z,1.98
2022-11-01T18:51:31.534Z,2.25
2022-11-01T18:54:20.774Z,2.30
2022-11-01T18:56:52.783Z,2.17
2022-11-01T18:59:30.111Z,3.35
2022-11-01T19:02:03.464Z,3.22
2022-11-01T19:04:35.680Z,3.40
2022-11-01T19:07:13.462Z,3.08
2022-11-01T19:09:44.027Z,2.42
2022-11-01T19:12:22.625Z,2.58
2022-11-01T19:14:57.882Z,2.67
2022-11-01T19:17:29.148Z,2.65
2022-11-01T19:20:00.352Z,3.20
2022-11-01T19:22:39.510Z,2.97
2022-11-01T19:25:22.760Z,3.20
2022-11-01T19:27:54.353Z,2.75
2022-11-01T19:30:26.845Z,2.33
2022-11-01T19:32:57.637Z,2.63
2022-11-01T19:35:27.689Z,2.97
2022-11-01T19:37:58.041Z,3.20
2022-11-01T19:40:32.145Z,2.25
2022-11-01T19:43:10.373Z,3.55
2022-11-01T19:45:45.389Z,3.13
2022-11-01T19:48:21.231Z,2.53
2022-11-01T19:50:51.289Z,1.75
2022-11-01T19:53:27.285Z,2.40
2022-11-01T19:55:59.683Z,2.67
2022-11-01T19:58:43.838Z,2.88
2022-11-01T20:01:41.905Z,2.45
2022-11-01T20:04:24.454Z,2.70
2022-11-01T20:09:32.174Z,3.83
2022-11-01T20:12:00.435Z,2.15
2022-11-01T20:14:28.716Z,2.03
2022-11-01T20:16:56.991Z,2.00
2022-11-01T20:19:25.537Z,2.33
2022-11-01T20:21:54.149Z,2.15
2022-11-01T20:24:23.992Z,2.70
2022-11-01T20:26:53.118Z,2.40
2022-11-01T20:29:22.186Z,2.53
2022-11-01T20:31:50.772Z,3.08
2022-11-01T20:34:20.627Z,2.40
2022-11-01T20:37:08.210Z,2.35
2022-11-01T20:39:39.245Z,2.97
2022-11-01T20:42:08.101Z,2.75
2022-11-01T20:44:36.690Z,3.00
2022-11-01T20:47:05.235Z,2.53
2022-11-01T20:49:33.431Z,3.22
2022-11-01T20:52:26.051Z,2.42
2022-11-01T20:54:51.258Z,3.13
2022-11-01T20:57:27.423Z,3.72
2022-11-01T20:59:57.562Z,4.05
2022-11-01T21:02:27.087Z,3.55
2022-11-01T21:05:02.472Z,3.10
2022-11-01T21:07:31.748Z,2.40
2022-11-01T21:10:01.648Z,3.13
2022-11-01T21:12:45.505Z,3.38
2022-11-01T21:15:33.919Z,4.18
2022-11-01T21:18:42.189Z,4.93
2022-11-01T21:21:42.445Z,3.58
2022-11-01T21:24:33.762Z,2.40
2022-11-01T21:27:24.632Z,2.55
2022-11-01T21:29:55.699Z,2.88
2022-11-01T21:32:30.500Z,2.95
2022-11-01T21:37:30.679Z,2.80
2022-11-01T21:40:06.034Z,2.80
2022-11-01T21:42:38.215Z,2.67
2022-11-01T21:45:30.703Z,3.00
2022-11-01T21:48:03.811Z,3.63
2022-11-01T21:50:32.417Z,3.00
2022-11-01T21:53:01.091Z,3.40
2022-11-01T21:55:29.741Z,3.97
2022-11-01T21:57:59.316Z,3.03
2022-11-01T22:00:27.900Z,3.35
2022-11-01T22:02:56.391Z,3.35
2022-11-01T22:05:24.610Z,3.17
2022-11-01T22:07:53.226Z,3.40
2022-11-01T22:10:21.741Z,3.15
2022-11-01T22:12:50.150Z,2.80
2022-11-01T22:15:19.722Z,3.28
2022-11-01T22:17:47.931Z,2.83
2022-11-01T22:20:16.805Z,3.25
2022-11-01T22:22:45.317Z,2.75
2022-11-01T22:25:14.094Z,2.95
2022-11-01T22:27:42.628Z,2.78
2022-11-01T22:30:12.662Z,2.88
2022-11-01T22:32:42.515Z,2.65
2022-11-01T22:35:11.048Z,2.85
2022-11-01T22:37:40.161Z,3.22
2022-11-01T22:40:13.546Z,2.95
2022-11-01T22:42:42.332Z,2.60
2022-11-01T22:45:15.915Z,3.10
2022-11-01T22:47:47.062Z,2.70
2022-11-01T22:50:26.244Z,2.42
2022-11-01T22:52:54.501Z,3.17
2022-11-01T22:55:28.197Z,2.85
2022-11-01T22:58:01.231Z,2.47
2022-11-01T23:00:33.337Z,2.53
2022-11-01T23:03:21.011Z,2.50
2022-11-01T23:05:51.627Z,3.35
2022-11-01T23:08:27.374Z,3.13
2022-11-01T23:10:56.567Z,3.25
2022-11-01T23:13:46.259Z,3.33
2022-11-01T23:16:25.406Z,2.92
2022-11-01T23:18:58.151Z,3.20
2022-11-01T23:21:27.578Z,3.42
2022-11-01T23:23:56.654Z,3.50
2022-11-01T23:26:25.668Z,3.05
2022-11-01T23:28:57.079Z,3.45
2022-11-01T23:31:28.494Z,2.97
2022-11-01T23:33:58.060Z,2.97
2022-11-01T23:36:30.273Z,3.70
2022-11-01T23:39:02.821Z,3.33
2022-11-01T23:41:35.834Z,3.70
2022-11-01T23:44:14.832Z,3.15
2022-11-01T23:46:43.408Z,3.45
2022-11-01T23:49:20.995Z,3.00
2022-11-01T23:51:49.733Z,3.75
2022-11-01T23:54:27.221Z,3.33
2022-11-01T23:56:56.086Z,3.60
2022-11-01T23:59:24.676Z,4.20
